sensor_id;sensor_type;location;lat;lon;timestamp;P1;durP1;ratioP1;P2;durP2;ratioP2
45620;SDS011;31345;51.522;10.702;2023-02-13T00:01:01;14.73;;;7.53;;
45620;SDS011;31345;51.522;10.702;2023-02-13T00:03:36;15.20;;;8.10;;
45620;SDS011;31345;51.522;10.702;2023-02-13T00:06:08;17.40;;;8.13;;
45620;SDS011;31345;51.522;10.702;2023-02-13T00:08:41;13.60;;;7.40;;
45620;SDS011;31345;51.522;10.702;2023-02-13T00:11:14;12.48;;;6.82;;
45620;SDS011;31345;51.522;10.702;2023-02-13T00:13:41;13.60;;;6.90;;
45620;SDS011;31345;51.522;10.702;2023-02-13T00:16:09;9.15;;;6.00;;
45620;SDS011;31345;51.522;10.702;2023-02-13T00:18:38;11.15;;;6.43;;
45620;SDS011;31345;51.522;10.702;2023-02-13T00:21:11;11.13;;;6.70;;
45620;SDS011;31345;51.522;10.702;2023-02-13T00:23:44;10.35;;;6.18;;
45620;SDS011;31345;51.522;10.702;2023-02-13T00:26:13;13.00;;;6.97;;
45620;SDS011;31345;51.522;10.702;2023-02-13T00:28:44;11.65;;;6.47;;
45620;SDS011;31345;51.522;10.702;2023-02-13T00:31:17;10.90;;;6.20;;
45620;SDS011;31345;51.522;10.702;2023-02-13T00:33:48;11.68;;;6.07;;
45620;SDS011;31345;51.522;10.702;2023-02-13T00:36:16;8.40;;;5.25;;
45620;SDS011;31345;51.522;10.702;2023-02-13T00:38:46;9.05;;;5.57;;
45620;SDS011;31345;51.522;10.702;2023-02-13T00:41:19;10.23;;;6.10;;
45620;SDS011;31345;51.522;10.702;2023-02-13T00:43:47;8.80;;;5.32;;
45620;SDS011;31345;51.522;10.702;2023-02-13T00:46:20;8.70;;;5.85;;
45620;SDS011;31345;51.522;10.702;2023-02-13T00:48:49;10.20;;;5.85;;
45620;SDS011;31345;51.522;10.702;2023-02-13T00:51:17;10.93;;;5.82;;
45620;SDS011;31345;51.522;10.702;2023-02-13T00:53:49;11.27;;;5.80;;
45620;SDS011;31345;51.522;10.702;2023-02-13T00:56:22;12.07;;;6.13;;
45620;SDS011;31345;51.522;10.702;2023-02-13T00:58:50;10.75;;;5.90;;
45620;SDS011;31345;51.522;10.702;2023-02-13T01:01:22;11.57;;;6.03;;
45620;SDS011;31345;51.522;10.702;2023-02-13T01:03:56;11.13;;;6.30;;
45620;SDS011;31345;51.522;10.702;2023-02-13T01:06:24;10.63;;;6.07;;
45620;SDS011;31345;51.522;10.702;2023-02-13T01:08:51;11.27;;;5.88;;
45620;SDS011;31345;51.522;10.702;2023-02-13T01:11:24;9.30;;;5.53;;
45620;SDS011;31345;51.522;10.702;2023-02-13T01:13:51;10.25;;;5.68;;
45620;SDS011;31345;51.522;10.702;2023-02-13T01:16:25;10.05;;;6.03;;
45620;SDS011;31345;51.522;10.702;2023-02-13T01:18:59;9.50;;;5.55;;
45620;SDS011;31345;51.522;10.702;2023-02-13T01:21:31;9.13;;;5.30;;
45620;SDS011;31345;51.522;10.702;2023-02-13T01:24:01;10.60;;;5.63;;
45620;SDS011;31345;51.522;10.702;2023-02-13T01:26:35;8.93;;;4.93;;
45620;SDS011;31345;51.522;10.702;2023-02-13T01:29:02;9.50;;;5.10;;
45620;SDS011;31345;51.522;10.702;2023-02-13T01:31:30;11.45;;;5.82;;
45620;SDS011;31345;51.522;10.702;2023-02-13T01:33:59;10.52;;;5.72;;
45620;SDS011;31345;51.522;10.702;2023-02-13T01:36:31;9.05;;;4.80;;
45620;SDS011;31345;51.522;10.702;2023-02-13T01:38:59;8.13;;;4.95;;
45620;SDS011;31345;51.522;10.702;2023-02-13T01:41:31;8.63;;;5.20;;
45620;SDS011;31345;51.522;10.702;2023-02-13T01:44:00;9.35;;;5.35;;
45620;SDS011;31345;51.522;10.702;2023-02-13T01:46:34;7.75;;;4.57;;
45620;SDS011;31345;51.522;10.702;2023-02-13T01:49:10;9.77;;;4.97;;
45620;SDS011;31345;51.522;10.702;2023-02-13T01:51:43;9.32;;;5.10;;
45620;SDS011;31345;51.522;10.702;2023-02-13T01:54:19;11.65;;;5.57;;
45620;SDS011;31345;51.522;10.702;2023-02-13T01:56:56;8.23;;;4.95;;
45620;SDS011;31345;51.522;10.702;2023-02-13T01:59:32;10.75;;;5.78;;
45620;SDS011;31345;51.522;10.702;2023-02-13T02:02:09;11.98;;;5.35;;
45620;SDS011;31345;51.522;10.702;2023-02-13T02:04:38;9.32;;;5.70;;
45620;SDS011;31345;51.522;10.702;2023-02-13T02:07:19;9.90;;;5.15;;
45620;SDS011;31345;51.522;10.702;2023-02-13T02:09:51;10.90;;;5.35;;
45620;SDS011;31345;51.522;10.702;2023-02-13T02:12:28;9.43;;;5.32;;
45620;SDS011;31345;51.522;10.702;2023-02-13T02:15:05;11.43;;;6.07;;
45620;SDS011;31345;51.522;10.702;2023-02-13T02:17:39;10.27;;;6.05;;
45620;SDS011;31345;51.522;10.702;2023-02-13T02:20:12;9.57;;;6.03;;
45620;SDS011;31345;51.522;10.702;2023-02-13T02:26:08;8.15;;;5.25;;
45620;SDS011;31345;51.522;10.702;2023-02-13T02:29:11;9.38;;;5.50;;
45620;SDS011;31345;51.522;10.702;2023-02-13T02:32:13;10.48;;;5.45;;
45620;SDS011;31345;51.522;10.702;2023-02-13T02:35:08;9.82;;;5.53;;
45620;SDS011;31345;51.522;10.702;2023-02-13T02:37:54;9.13;;;5.25;;
45620;SDS011;31345;51.522;10.702;2023-02-13T02:40:36;10.63;;;5.90;;
45620;SDS011;31345;51.522;10.702;2023-02-13T02:43:21;10.27;;;6.20;;
45620;SDS011;31345;51.522;10.702;2023-02-13T02:46:03;10.88;;;5.75;;
45620;SDS011;31345;51.522;10.702;2023-02-13T02:48:46;9.35;;;5.57;;
45620;SDS011;31345;51.522;10.702;2023-02-13T02:51:46;10.38;;;4.90;;
45620;SDS011;31345;51.522;10.702;2023-02-13T02:54:26;10.68;;;5.97;;
45620;SDS011;31345;51.522;10.702;2023-02-13T02:57:22;13.18;;;6.32;;
45620;SDS011;31345;51.522;10.702;2023-02-13T03:00:13;11.25;;;5.88;;
45620;SDS011;31345;51.522;10.702;2023-02-13T03:03:05;7.80;;;5.28;;
45620;SDS011;31345;51.522;10.702;2023-02-13T03:05:59;10.40;;;5.88;;
45620;SDS011;31345;51.522;10.702;2023-02-13T03:08:45;9.63;;;5.57;;
45620;SDS011;31345;51.522;10.702;2023-02-13T03:11:37;11.50;;;6.10;;
45620;SDS011;31345;51.522;10.702;2023-02-13T03:14:25;16.00;;;6.78;;
45620;SDS011;31345;51.522;10.702;2023-02-13T03:16:54;13.07;;;5.70;;
45620;SDS011;31345;51.522;10.702;2023-02-13T03:19:51;11.10;;;5.80;;
45620;SDS011;31345;51.522;10.702;2023-02-13T03:22:55;10.43;;;6.77;;
45620;SDS011;31345;51.522;10.702;2023-02-13T03:25:29;10.73;;;5.97;;
45620;SDS011;31345;51.522;10.702;2023-02-13T03:28:06;12.07;;;5.75;;
45620;SDS011;31345;51.522;10.702;2023-02-13T03:31:06;11.30;;;5.87;;
45620;SDS011;31345;51.522;10.702;2023-02-13T03:33:52;10.45;;;6.25;;
45620;SDS011;31345;51.522;10.702;2023-02-13T03:36:32;12.55;;;6.15;;
45620;SDS011;31345;51.522;10.702;2023-02-13T03:39:43;12.30;;;6.00;;
45620;SDS011;31345;51.522;10.702;2023-02-13T03:42:17;13.27;;;6.83;;
45620;SDS011;31345;51.522;10.702;2023-02-13T03:44:55;10.20;;;5.90;;
45620;SDS011;31345;51.522;10.702;2023-02-13T03:47:44;10.25;;;6.15;;
45620;SDS011;31345;51.522;10.702;2023-02-13T03:50:15;11.52;;;6.32;;
45620;SDS011;31345;51.522;10.702;2023-02-13T03:52:49;11.77;;;6.37;;
45620;SDS011;31345;51.522;10.702;2023-02-13T03:55:21;10.10;;;5.97;;
45620;SDS011;31345;51.522;10.702;2023-02-13T03:58:14;12.07;;;5.95;;
45620;SDS011;31345;51.522;10.702;2023-02-13T04:01:05;10.95;;;5.78;;
45620;SDS011;31345;51.522;10.702;2023-02-13T04:03:42;9.95;;;5.80;;
45620;SDS011;31345;51.522;10.702;2023-02-13T04:06:21;8.20;;;5.93;;
45620;SDS011;31345;51.522;10.702;2023-02-13T04:08:53;10.43;;;5.28;;
45620;SDS011;31345;51.522;10.702;2023-02-13T04:11:29;10.68;;;5.90;;
45620;SDS011;31345;51.522;10.702;2023-02-13T04:14:06;10.15;;;5.95;;
45620;SDS011;31345;51.522;10.702;2023-02-13T04:16:41;12.20;;;6.38;;
45620;SDS011;31345;51.522;10.702;2023-02-13T04:19:16;9.20;;;5.63;;
45620;SDS011;31345;51.522;10.702;2023-02-13T04:21:54;9.60;;;5.72;;
45620;SDS011;31345;51.522;10.702;2023-02-13T04:24:28;12.20;;;6.15;;
45620;SDS011;31345;51.522;10.702;2023-02-13T04:27:02;11.13;;;6.05;;
45620;SDS011;31345;51.522;10.702;2023-02-13T04:29:29;10.52;;;5.53;;
45620;SDS011;31345;51.522;10.702;2023-02-13T04:32:02;6.93;;;4.63;;
45620;SDS011;31345;51.522;10.702;2023-02-13T04:34:30;9.88;;;5.53;;
45620;SDS011;31345;51.522;10.702;2023-02-13T04:37:03;9.85;;;5.05;;
45620;SDS011;31345;51.522;10.702;2023-02-13T04:39:30;9.93;;;5.03;;
45620;SDS011;31345;51.522;10.702;2023-02-13T04:41:57;11.75;;;5.20;;
45620;SDS011;31345;51.522;10.702;2023-02-13T04:44:31;9.40;;;6.05;;
45620;SDS011;31345;51.522;10.702;2023-02-13T04:47:04;8.20;;;5.07;;
45620;SDS011;31345;51.522;10.702;2023-02-13T04:49:31;7.75;;;5.20;;
45620;SDS011;31345;51.522;10.702;2023-02-13T04:51:59;10.30;;;5.22;;
45620;SDS011;31345;51.522;10.702;2023-02-13T04:54:26;10.13;;;5.00;;
45620;SDS011;31345;51.522;10.702;2023-02-13T04:56:59;8.40;;;4.53;;
45620;SDS011;31345;51.522;10.702;2023-02-13T04:59:33;9.52;;;5.13;;
45620;SDS011;31345;51.522;10.702;2023-02-13T05:02:05;9.63;;;5.57;;
45620;SDS011;31345;51.522;10.702;2023-02-13T05:04:33;9.18;;;5.40;;
45620;SDS011;31345;51.522;10.702;2023-02-13T05:07:05;10.70;;;5.03;;
45620;SDS011;31345;51.522;10.702;2023-02-13T05:09:33;11.38;;;5.57;;
45620;SDS011;31345;51.522;10.702;2023-02-13T05:12:06;8.07;;;4.50;;
45620;SDS011;31345;51.522;10.702;2023-02-13T05:14:40;8.82;;;4.90;;
45620;SDS011;31345;51.522;10.702;2023-02-13T05:17:07;8.15;;;4.40;;
45620;SDS011;31345;51.522;10.702;2023-02-13T05:19:40;11.98;;;5.70;;
45620;SDS011;31345;51.522;10.702;2023-02-13T05:22:12;11.00;;;5.22;;
45620;SDS011;31345;51.522;10.702;2023-02-13T05:24:57;6.88;;;4.70;;
45620;SDS011;31345;51.522;10.702;2023-02-13T05:27:30;9.30;;;4.72;;
45620;SDS011;31345;51.522;10.702;2023-02-13T05:29:59;8.93;;;4.95;;
45620;SDS011;31345;51.522;10.702;2023-02-13T05:32:25;12.43;;;5.80;;
45620;SDS011;31345;51.522;10.702;2023-02-13T05:34:53;9.73;;;5.03;;
45620;SDS011;31345;51.522;10.702;2023-02-13T05:37:20;11.98;;;5.97;;
45620;SDS011;31345;51.522;10.702;2023-02-13T05:39:53;16.13;;;7.03;;
45620;SDS011;31345;51.522;10.702;2023-02-13T05:42:20;15.10;;;8.52;;
45620;SDS011;31345;51.522;10.702;2023-02-13T05:44:48;14.00;;;7.88;;
45620;SDS011;31345;51.522;10.702;2023-02-13T05:47:22;13.40;;;7.07;;
45620;SDS011;31345;51.522;10.702;2023-02-13T05:49:54;10.93;;;5.60;;
45620;SDS011;31345;51.522;10.702;2023-02-13T05:52:27;8.35;;;4.43;;
45620;SDS011;31345;51.522;10.702;2023-02-13T05:54:59;9.23;;;4.72;;
45620;SDS011;31345;51.522;10.702;2023-02-13T05:57:27;7.70;;;4.20;;
45620;SDS011;31345;51.522;10.702;2023-02-13T05:59:59;6.55;;;3.60;;
45620;SDS011;31345;51.522;10.702;2023-02-13T06:02:33;6.97;;;4.15;;
45620;SDS011;31345;51.522;10.702;2023-02-13T06:05:06;6.55;;;3.17;;
45620;SDS011;31345;51.522;10.702;2023-02-13T06:07:38;7.37;;;3.60;;
45620;SDS011;31345;51.522;10.702;2023-02-13T06:10:06;6.25;;;3.88;;
45620;SDS011;31345;51.522;10.702;2023-02-13T06:12:39;6.90;;;3.83;;
45620;SDS011;31345;51.522;10.702;2023-02-13T06:15:13;5.85;;;3.35;;
45620;SDS011;31345;51.522;10.702;2023-02-13T06:17:49;6.88;;;3.60;;
45620;SDS011;31345;51.522;10.702;2023-02-13T06:20:22;5.50;;;3.70;;
45620;SDS011;31345;51.522;10.702;2023-02-13T06:22:55;5.60;;;3.57;;
45620;SDS011;31345;51.522;10.702;2023-02-13T06:25:22;6.15;;;3.55;;
45620;SDS011;31345;51.522;10.702;2023-02-13T06:27:55;8.77;;;3.83;;
45620;SDS011;31345;51.522;10.702;2023-02-13T06:30:28;6.63;;;4.10;;
45620;SDS011;31345;51.522;10.702;2023-02-13T06:32:56;7.23;;;4.27;;
45620;SDS011;31345;51.522;10.702;2023-02-13T06:35:29;7.20;;;4.20;;
45620;SDS011;31345;51.522;10.702;2023-02-13T06:37:57;7.23;;;4.60;;
45620;SDS011;31345;51.522;10.702;2023-02-13T06:40:24;8.50;;;3.93;;
45620;SDS011;31345;51.522;10.702;2023-02-13T06:42:57;10.93;;;5.30;;
45620;SDS011;31345;51.522;10.702;2023-02-13T06:45:30;7.57;;;5.00;;
45620;SDS011;31345;51.522;10.702;2023-02-13T06:48:04;8.30;;;4.13;;
45620;SDS011;31345;51.522;10.702;2023-02-13T06:50:32;7.83;;;3.93;;
45620;SDS011;31345;51.522;10.702;2023-02-13T06:53:05;6.83;;;4.73;;
45620;SDS011;31345;51.522;10.702;2023-02-13T06:55:38;13.67;;;5.90;;
45620;SDS011;31345;51.522;10.702;2023-02-13T06:58:05;6.73;;;4.17;;
45620;SDS011;31345;51.522;10.702;2023-02-13T07:00:38;7.40;;;4.13;;
45620;SDS011;31345;51.522;10.702;2023-02-13T07:03:12;6.83;;;4.60;;
45620;SDS011;31345;51.522;10.702;2023-02-13T07:05:44;7.17;;;4.70;;
45620;SDS011;31345;51.522;10.702;2023-02-13T07:08:12;7.43;;;5.17;;
45620;SDS011;31345;51.522;10.702;2023-02-13T07:10:45;6.27;;;4.10;;
45620;SDS011;31345;51.522;10.702;2023-02-13T07:13:12;7.40;;;4.50;;
45620;SDS011;31345;51.522;10.702;2023-02-13T07:15:40;6.78;;;4.50;;
45620;SDS011;31345;51.522;10.702;2023-02-13T07:18:14;7.57;;;4.37;;
45620;SDS011;31345;51.522;10.702;2023-02-13T07:20:47;6.43;;;4.07;;
45620;SDS011;31345;51.522;10.702;2023-02-13T07:23:14;7.17;;;4.10;;
45620;SDS011;31345;51.522;10.702;2023-02-13T07:25:47;6.57;;;4.30;;
45620;SDS011;31345;51.522;10.702;2023-02-13T07:28:20;8.37;;;4.33;;
45620;SDS011;31345;51.522;10.702;2023-02-13T07:30:52;7.47;;;4.40;;
45620;SDS011;31345;51.522;10.702;2023-02-13T07:33:26;6.30;;;3.80;;
45620;SDS011;31345;51.522;10.702;2023-02-13T07:35:54;6.80;;;3.53;;
45620;SDS011;31345;51.522;10.702;2023-02-13T07:38:26;6.33;;;3.90;;
45620;SDS011;31345;51.522;10.702;2023-02-13T07:40:54;6.57;;;3.93;;
45620;SDS011;31345;51.522;10.702;2023-02-13T07:43:29;6.30;;;4.30;;
45620;SDS011;31345;51.522;10.702;2023-02-13T07:46:02;7.80;;;4.10;;
45620;SDS011;31345;51.522;10.702;2023-02-13T07:48:32;7.57;;;3.90;;
45620;SDS011;31345;51.522;10.702;2023-02-13T07:50:59;6.67;;;3.50;;
45620;SDS011;31345;51.522;10.702;2023-02-13T07:53:28;7.43;;;4.20;;
45620;SDS011;31345;51.522;10.702;2023-02-13T07:55:56;6.23;;;3.77;;
45620;SDS011;31345;51.522;10.702;2023-02-13T07:58:28;6.63;;;4.10;;
45620;SDS011;31345;51.522;10.702;2023-02-13T08:01:04;7.97;;;4.40;;
45620;SDS011;31345;51.522;10.702;2023-02-13T08:03:34;13.23;;;6.60;;
45620;SDS011;31345;51.522;10.702;2023-02-13T08:06:06;11.27;;;7.37;;
45620;SDS011;31345;51.522;10.702;2023-02-13T08:08:35;10.10;;;5.17;;
45620;SDS011;31345;51.522;10.702;2023-02-13T08:11:04;6.33;;;3.90;;
45620;SDS011;31345;51.522;10.702;2023-02-13T08:13:56;10.17;;;5.30;;
45620;SDS011;31345;51.522;10.702;2023-02-13T08:16:29;7.37;;;3.87;;
45620;SDS011;31345;51.522;10.702;2023-02-13T08:18:57;8.53;;;4.40;;
45620;SDS011;31345;51.522;10.702;2023-02-13T08:21:30;10.60;;;5.77;;
45620;SDS011;31345;51.522;10.702;2023-02-13T08:23:58;7.20;;;4.50;;
45620;SDS011;31345;51.522;10.702;2023-02-13T08:26:25;6.97;;;4.97;;
45620;SDS011;31345;51.522;10.702;2023-02-13T08:28:53;9.60;;;5.70;;
45620;SDS011;31345;51.522;10.702;2023-02-13T08:31:20;11.00;;;7.13;;
45620;SDS011;31345;51.522;10.702;2023-02-13T08:33:48;11.83;;;7.27;;
45620;SDS011;31345;51.522;10.702;2023-02-13T08:36:22;12.07;;;8.33;;
45620;SDS011;31345;51.522;10.702;2023-02-13T08:38:50;9.47;;;6.20;;
45620;SDS011;31345;51.522;10.702;2023-02-13T08:41:17;7.30;;;4.63;;
45620;SDS011;31345;51.522;10.702;2023-02-13T08:43:52;7.70;;;4.70;;
45620;SDS011;31345;51.522;10.702;2023-02-13T08:46:20;6.63;;;4.30;;
45620;SDS011;31345;51.522;10.702;2023-02-13T08:48:48;10.60;;;5.57;;
45620;SDS011;31345;51.522;10.702;2023-02-13T08:51:15;8.40;;;5.03;;
45620;SDS011;31345;51.522;10.702;2023-02-13T08:53:49;9.17;;;5.47;;
45620;SDS011;31345;51.522;10.702;2023-02-13T08:56:17;10.25;;;4.88;;
45620;SDS011;31345;51.522;10.702;2023-02-13T08:58:49;7.57;;;4.67;;
45620;SDS011;31345;51.522;10.702;2023-02-13T09:01:17;7.03;;;4.47;;
45620;SDS011;31345;51.522;10.702;2023-02-13T09:03:50;7.00;;;4.60;;
45620;SDS011;31345;51.522;10.702;2023-02-13T09:06:22;7.87;;;5.33;;
45620;SDS011;31345;51.522;10.702;2023-02-13T09:08:57;7.40;;;4.50;;
45620;SDS011;31345;51.522;10.702;2023-02-13T09:11:30;9.03;;;6.27;;
45620;SDS011;31345;51.522;10.702;2023-02-13T09:13:57;7.43;;;4.27;;
45620;SDS011;31345;51.522;10.702;2023-02-13T09:16:30;7.17;;;4.30;;
45620;SDS011;31345;51.522;10.702;2023-02-13T09:19:02;7.03;;;3.60;;
45620;SDS011;31345;51.522;10.702;2023-02-13T09:21:35;5.63;;;3.20;;
45620;SDS011;31345;51.522;10.702;2023-02-13T09:24:07;5.10;;;2.97;;
45620;SDS011;31345;51.522;10.702;2023-02-13T09:26:40;6.20;;;2.83;;
45620;SDS011;31345;51.522;10.702;2023-02-13T09:29:12;4.80;;;2.43;;
45620;SDS011;31345;51.522;10.702;2023-02-13T09:31:40;3.33;;;1.60;;
45620;SDS011;31345;51.522;10.702;2023-02-13T09:34:12;3.50;;;2.23;;
45620;SDS011;31345;51.522;10.702;2023-02-13T09:36:40;4.00;;;2.10;;
45620;SDS011;31345;51.522;10.702;2023-02-13T09:39:14;3.78;;;2.13;;
45620;SDS011;31345;51.522;10.702;2023-02-13T09:41:42;2.80;;;1.90;;
45620;SDS011;31345;51.522;10.702;2023-02-13T09:44:12;4.07;;;1.97;;
45620;SDS011;31345;51.522;10.702;2023-02-13T09:46:56;2.50;;;1.60;;
45620;SDS011;31345;51.522;10.702;2023-02-13T09:49:24;3.00;;;1.97;;
45620;SDS011;31345;51.522;10.702;2023-02-13T09:52:01;13.32;;;7.97;;
45620;SDS011;31345;51.522;10.702;2023-02-13T09:54:30;6.72;;;3.45;;
45620;SDS011;31345;51.522;10.702;2023-02-13T09:56:59;3.65;;;2.13;;
45620;SDS011;31345;51.522;10.702;2023-02-13T09:59:36;26.70;;;15.98;;
45620;SDS011;31345;51.522;10.702;2023-02-13T10:02:21;6.28;;;2.80;;
45620;SDS011;31345;51.522;10.702;2023-02-13T10:05:03;5.40;;;3.43;;
45620;SDS011;31345;51.522;10.702;2023-02-13T10:07:44;2.30;;;1.40;;
45620;SDS011;31345;51.522;10.702;2023-02-13T10:10:28;2.97;;;1.70;;
45620;SDS011;31345;51.522;10.702;2023-02-13T10:13:07;3.67;;;2.85;;
45620;SDS011;31345;51.522;10.702;2023-02-13T10:15:58;12.70;;;11.40;;
45620;SDS011;31345;51.522;10.702;2023-02-13T10:18:33;4.40;;;3.03;;
45620;SDS011;31345;51.522;10.702;2023-02-13T10:21:14;4.60;;;2.85;;
45620;SDS011;31345;51.522;10.702;2023-02-13T10:23:53;3.22;;;2.05;;
45620;SDS011;31345;51.522;10.702;2023-02-13T10:26:34;3.20;;;1.90;;
45620;SDS011;31345;51.522;10.702;2023-02-13T10:29:13;4.28;;;1.83;;
45620;SDS011;31345;51.522;10.702;2023-02-13T10:32:09;2.40;;;1.70;;
45620;SDS011;31345;51.522;10.702;2023-02-13T10:34:41;3.20;;;2.00;;
45620;SDS011;31345;51.522;10.702;2023-02-13T10:37:13;4.23;;;2.40;;
45620;SDS011;31345;51.522;10.702;2023-02-13T10:39:43;3.20;;;2.00;;
45620;SDS011;31345;51.522;10.702;2023-02-13T10:42:16;3.60;;;2.00;;
45620;SDS011;31345;51.522;10.702;2023-02-13T10:44:57;3.92;;;2.30;;
45620;SDS011;31345;51.522;10.702;2023-02-13T10:47:44;3.33;;;2.00;;
45620;SDS011;31345;51.522;10.702;2023-02-13T10:50:21;3.65;;;2.00;;
45620;SDS011;31345;51.522;10.702;2023-02-13T10:52:56;2.97;;;1.97;;
45620;SDS011;31345;51.522;10.702;2023-02-13T10:58:29;3.42;;;2.50;;
45620;SDS011;31345;51.522;10.702;2023-02-13T11:01:12;4.80;;;2.80;;
45620;SDS011;31345;51.522;10.702;2023-02-13T11:03:59;5.45;;;2.40;;
45620;SDS011;31345;51.522;10.702;2023-02-13T11:06:31;4.53;;;2.70;;
45620;SDS011;31345;51.522;10.702;2023-02-13T11:09:05;4.28;;;2.60;;
45620;SDS011;31345;51.522;10.702;2023-02-13T11:11:34;3.90;;;2.58;;
45620;SDS011;31345;51.522;10.702;2023-02-13T11:14:14;4.07;;;2.20;;
45620;SDS011;31345;51.522;10.702;2023-02-13T11:16:55;3.53;;;2.30;;
45620;SDS011;31345;51.522;10.702;2023-02-13T11:19:31;4.07;;;2.50;;
45620;SDS011;31345;51.522;10.702;2023-02-13T11:22:02;3.60;;;2.30;;
45620;SDS011;31345;51.522;10.702;2023-02-13T11:24:39;4.05;;;2.55;;
45620;SDS011;31345;51.522;10.702;2023-02-13T11:27:09;3.97;;;2.50;;
45620;SDS011;31345;51.522;10.702;2023-02-13T11:29:52;5.60;;;4.18;;
45620;SDS011;31345;51.522;10.702;2023-02-13T11:32:27;4.95;;;3.75;;
45620;SDS011;31345;51.522;10.702;2023-02-13T11:35:15;5.72;;;3.13;;
45620;SDS011;31345;51.522;10.702;2023-02-13T11:38:09;5.13;;;3.00;;
45620;SDS011;31345;51.522;10.702;2023-02-13T11:40:45;4.55;;;2.95;;
45620;SDS011;31345;51.522;10.702;2023-02-13T11:43:29;5.37;;;3.13;;
45620;SDS011;31345;51.522;10.702;2023-02-13T11:46:05;6.38;;;3.22;;
45620;SDS011;31345;51.522;10.702;2023-02-13T11:48:40;4.40;;;2.90;;
45620;SDS011;31345;51.522;10.702;2023-02-13T11:51:14;4.90;;;2.72;;
45620;SDS011;31345;51.522;10.702;2023-02-13T11:53:47;4.72;;;3.13;;
45620;SDS011;31345;51.522;10.702;2023-02-13T11:56:19;4.50;;;2.97;;
45620;SDS011;31345;51.522;10.702;2023-02-13T11:58:47;4.28;;;3.00;;
45620;SDS011;31345;51.522;10.702;2023-02-13T12:01:29;5.57;;;3.13;;
45620;SDS011;31345;51.522;10.702;2023-02-13T12:04:04;5.30;;;3.17;;
45620;SDS011;31345;51.522;10.702;2023-02-13T12:06:38;4.47;;;2.97;;
45620;SDS011;31345;51.522;10.702;2023-02-13T12:09:09;4.70;;;2.90;;
45620;SDS011;31345;51.522;10.702;2023-02-13T12:11:41;5.93;;;3.40;;
45620;SDS011;31345;51.522;10.702;2023-02-13T12:14:13;4.97;;;3.05;;
45620;SDS011;31345;51.522;10.702;2023-02-13T12:16:53;4.53;;;3.00;;
45620;SDS011;31345;51.522;10.702;2023-02-13T12:19:32;6.47;;;3.35;;
45620;SDS011;31345;51.522;10.702;2023-02-13T12:22:21;5.32;;;3.17;;
45620;SDS011;31345;51.522;10.702;2023-02-13T12:28:02;4.90;;;3.50;;
45620;SDS011;31345;51.522;10.702;2023-02-13T12:33:52;5.88;;;4.20;;
45620;SDS011;31345;51.522;10.702;2023-02-13T12:36:47;4.88;;;3.28;;
45620;SDS011;31345;51.522;10.702;2023-02-13T12:39:32;8.60;;;4.18;;
45620;SDS011;31345;51.522;10.702;2023-02-13T12:42:08;8.10;;;4.38;;
45620;SDS011;31345;51.522;10.702;2023-02-13T12:45:12;7.05;;;4.68;;
45620;SDS011;31345;51.522;10.702;2023-02-13T12:48:01;6.30;;;4.13;;
45620;SDS011;31345;51.522;10.702;2023-02-13T12:54:11;6.82;;;4.45;;
45620;SDS011;31345;51.522;10.702;2023-02-13T12:57:02;8.25;;;5.57;;
45620;SDS011;31345;51.522;10.702;2023-02-13T12:59:49;7.63;;;5.22;;
45620;SDS011;31345;51.522;10.702;2023-02-13T13:02:50;7.45;;;5.05;;
45620;SDS011;31345;51.522;10.702;2023-02-13T13:05:34;6.63;;;4.68;;
45620;SDS011;31345;51.522;10.702;2023-02-13T13:08:21;7.82;;;5.13;;
45620;SDS011;31345;51.522;10.702;2023-02-13T13:11:08;7.90;;;4.72;;
45620;SDS011;31345;51.522;10.702;2023-02-13T13:13:55;7.95;;;5.07;;
45620;SDS011;31345;51.522;10.702;2023-02-13T13:16:34;9.23;;;5.50;;
45620;SDS011;31345;51.522;10.702;2023-02-13T13:19:12;9.57;;;6.00;;
45620;SDS011;31345;51.522;10.702;2023-02-13T13:21:47;9.48;;;5.50;;
45620;SDS011;31345;51.522;10.702;2023-02-13T13:24:24;9.02;;;6.13;;
45620;SDS011;31345;51.522;10.702;2023-02-13T13:26:58;8.57;;;5.85;;
45620;SDS011;31345;51.522;10.702;2023-02-13T13:29:35;8.23;;;5.47;;
45620;SDS011;31345;51.522;10.702;2023-02-13T13:32:10;9.88;;;5.90;;
45620;SDS011;31345;51.522;10.702;2023-02-13T13:34:43;8.57;;;5.53;;
45620;SDS011;31345;51.522;10.702;2023-02-13T13:37:13;8.25;;;5.45;;
45620;SDS011;31345;51.522;10.702;2023-02-13T13:39:56;8.85;;;5.53;;
45620;SDS011;31345;51.522;10.702;2023-02-13T13:42:37;9.93;;;6.23;;
45620;SDS011;31345;51.522;10.702;2023-02-13T13:45:13;11.30;;;6.25;;
45620;SDS011;31345;51.522;10.702;2023-02-13T13:51:17;8.82;;;5.78;;
45620;SDS011;31345;51.522;10.702;2023-02-13T13:57:06;11.70;;;6.55;;
45620;SDS011;31345;51.522;10.702;2023-02-13T14:02:36;7.93;;;6.05;;
45620;SDS011;31345;51.522;10.702;2023-02-13T14:05:17;10.52;;;6.22;;
45620;SDS011;31345;51.522;10.702;2023-02-13T14:07:54;9.45;;;6.10;;
45620;SDS011;31345;51.522;10.702;2023-02-13T14:13:33;8.82;;;6.20;;
45620;SDS011;31345;51.522;10.702;2023-02-13T14:16:03;8.98;;;5.90;;
45620;SDS011;31345;51.522;10.702;2023-02-13T14:18:36;10.48;;;6.22;;
45620;SDS011;31345;51.522;10.702;2023-02-13T14:21:21;8.77;;;5.63;;
45620;SDS011;31345;51.522;10.702;2023-02-13T14:23:55;8.05;;;5.88;;
45620;SDS011;31345;51.522;10.702;2023-02-13T14:26:32;7.93;;;5.22;;
45620;SDS011;31345;51.522;10.702;2023-02-13T14:29:16;7.68;;;5.55;;
45620;SDS011;31345;51.522;10.702;2023-02-13T14:31:58;7.32;;;4.80;;
45620;SDS011;31345;51.522;10.702;2023-02-13T14:34:59;8.77;;;5.80;;
45620;SDS011;31345;51.522;10.702;2023-02-13T14:37:34;7.82;;;5.35;;
45620;SDS011;31345;51.522;10.702;2023-02-13T14:43:26;8.80;;;5.95;;
45620;SDS011;31345;51.522;10.702;2023-02-13T14:46:00;10.63;;;5.60;;
45620;SDS011;31345;51.522;10.702;2023-02-13T14:48:40;9.55;;;5.97;;
45620;SDS011;31345;51.522;10.702;2023-02-13T14:51:19;7.97;;;5.90;;
45620;SDS011;31345;51.522;10.702;2023-02-13T14:56:34;9.55;;;6.30;;
45620;SDS011;31345;51.522;10.702;2023-02-13T14:59:08;9.00;;;5.75;;
45620;SDS011;31345;51.522;10.702;2023-02-13T15:01:47;7.70;;;5.70;;
45620;SDS011;31345;51.522;10.702;2023-02-13T15:04:25;8.63;;;5.68;;
45620;SDS011;31345;51.522;10.702;2023-02-13T15:07:01;10.63;;;6.43;;
45620;SDS011;31345;51.522;10.702;2023-02-13T15:09:38;10.57;;;6.97;;
45620;SDS011;31345;51.522;10.702;2023-02-13T15:12:25;9.02;;;6.10;;
45620;SDS011;31345;51.522;10.702;2023-02-13T15:15:00;10.15;;;6.85;;
45620;SDS011;31345;51.522;10.702;2023-02-13T15:17:37;10.45;;;7.53;;
45620;SDS011;31345;51.522;10.702;2023-02-13T15:20:16;9.48;;;6.45;;
45620;SDS011;31345;51.522;10.702;2023-02-13T15:22:56;9.80;;;6.30;;
45620;SDS011;31345;51.522;10.702;2023-02-13T15:25:31;10.23;;;6.95;;
45620;SDS011;31345;51.522;10.702;2023-02-13T15:28:06;10.23;;;7.20;;
45620;SDS011;31345;51.522;10.702;2023-02-13T15:30:50;11.60;;;7.07;;
45620;SDS011;31345;51.522;10.702;2023-02-13T15:33:22;10.30;;;6.22;;
45620;SDS011;31345;51.522;10.702;2023-02-13T15:35:55;10.00;;;6.70;;
45620;SDS011;31345;51.522;10.702;2023-02-13T15:38:24;10.25;;;6.57;;
45620;SDS011;31345;51.522;10.702;2023-02-13T15:40:54;8.23;;;5.90;;
45620;SDS011;31345;51.522;10.702;2023-02-13T15:43:29;8.77;;;6.10;;
45620;SDS011;31345;51.522;10.702;2023-02-13T15:46:05;9.88;;;5.97;;
45620;SDS011;31345;51.522;10.702;2023-02-13T15:48:45;11.40;;;6.90;;
45620;SDS011;31345;51.522;10.702;2023-02-13T15:51:19;8.38;;;5.95;;
45620;SDS011;31345;51.522;10.702;2023-02-13T15:53:49;8.52;;;6.10;;